sensor_id;sensor_type;location;lat;lon;timestamp;temperature;humidity
27647;DHT22;42229;51.230;6.240;2023-05-10T00:00:22;14.90;99.90
27647;DHT22;42229;51.230;6.240;2023-05-10T00:02:49;14.90;99.90
27647;DHT22;42229;51.230;6.240;2023-05-10T00:05:15;14.90;99.90
27647;DHT22;42229;51.230;6.240;2023-05-10T00:07:42;14.90;99.90
27647;DHT22;42229;51.230;6.240;2023-05-10T00:10:10;14.90;99.90
27647;DHT22;42229;51.230;6.240;2023-05-10T00:12:37;14.80;99.90
27647;DHT22;42229;51.230;6.240;2023-05-10T00:15:03;14.80;99.90
27647;DHT22;42229;51.230;6.240;2023-05-10T00:17:31;14.80;99.90
27647;DHT22;42229;51.230;6.240;2023-05-10T00:19:57;14.80;99.90
27647;DHT22;42229;51.230;6.240;2023-05-10T00:22:23;14.80;99.90
27647;DHT22;42229;51.230;6.240;2023-05-10T00:24:50;14.70;99.90
27647;DHT22;42229;51.230;6.240;2023-05-10T00:27:16;14.70;99.90
27647;DHT22;42229;51.230;6.240;2023-05-10T00:29:43;14.70;99.90
27647;DHT22;42229;51.230;6.240;2023-05-10T00:32:09;14.70;99.90
27647;DHT22;42229;51.230;6.240;2023-05-10T00:34:36;14.70;99.90
27647;DHT22;42229;51.230;6.240;2023-05-10T00:37:02;14.70;99.90
27647;DHT22;42229;51.230;6.240;2023-05-10T00:39:28;14.70;99.90
27647;DHT22;42229;51.230;6.240;2023-05-10T00:41:55;14.70;99.90
27647;DHT22;42229;51.230;6.240;2023-05-10T00:44:21;14.60;99.90
27647;DHT22;42229;51.230;6.240;2023-05-10T00:46:48;14.60;99.90
27647;DHT22;42229;51.230;6.240;2023-05-10T00:49:14;14.60;99.90
27647;DHT22;42229;51.230;6.240;2023-05-10T00:51:41;14.60;99.90
27647;DHT22;42229;51.230;6.240;2023-05-10T00:54:09;14.60;99.90
27647;DHT22;42229;51.230;6.240;2023-05-10T00:56:37;14.60;99.90
27647;DHT22;42229;51.230;6.240;2023-05-10T00:59:04;14.60;99.90
27647;DHT22;42229;51.230;6.240;2023-05-10T01:01:30;14.60;99.90
27647;DHT22;42229;51.230;6.240;2023-05-10T01:03:56;14.60;99.90
27647;DHT22;42229;51.230;6.240;2023-05-10T01:06:23;14.60;99.90
27647;DHT22;42229;51.230;6.240;2023-05-10T01:08:49;14.70;99.90
27647;DHT22;42229;51.230;6.240;2023-05-10T01:11:16;14.60;99.90
27647;DHT22;42229;51.230;6.240;2023-05-10T01:13:43;14.60;99.90
27647;DHT22;42229;51.230;6.240;2023-05-10T01:16:15;14.70;99.90
27647;DHT22;42229;51.230;6.240;2023-05-10T01:18:42;14.70;99.90
27647;DHT22;42229;51.230;6.240;2023-05-10T01:24:09;14.70;99.90
27647;DHT22;42229;51.230;6.240;2023-05-10T01:27:02;14.70;99.90
27647;DHT22;42229;51.230;6.240;2023-05-10T01:29:39;14.70;99.90
27647;DHT22;42229;51.230;6.240;2023-05-10T01:32:34;14.70;99.90
27647;DHT22;42229;51.230;6.240;2023-05-10T01:38:01;14.70;99.90
27647;DHT22;42229;51.230;6.240;2023-05-10T01:43:20;14.70;99.90
27647;DHT22;42229;51.230;6.240;2023-05-10T01:46:05;14.70;99.90
27647;DHT22;42229;51.230;6.240;2023-05-10T01:48:39;14.70;99.90
27647;DHT22;42229;51.230;6.240;2023-05-10T01:51:08;14.70;99.90
27647;DHT22;42229;51.230;6.240;2023-05-10T01:53:36;14.70;99.90
27647;DHT22;42229;51.230;6.240;2023-05-10T01:56:03;14.70;99.90
27647;DHT22;42229;51.230;6.240;2023-05-10T01:58:31;14.70;99.90
27647;DHT22;42229;51.230;6.240;2023-05-10T02:01:00;14.70;99.90
27647;DHT22;42229;51.230;6.240;2023-05-10T02:03:27;14.70;99.90
27647;DHT22;42229;51.230;6.240;2023-05-10T02:05:54;14.80;99.90
27647;DHT22;42229;51.230;6.240;2023-05-10T02:08:22;14.70;99.90
27647;DHT22;42229;51.230;6.240;2023-05-10T02:10:49;14.70;99.90
27647;DHT22;42229;51.230;6.240;2023-05-10T02:13:18;14.80;99.90
27647;DHT22;42229;51.230;6.240;2023-05-10T02:15:46;14.70;99.90
27647;DHT22;42229;51.230;6.240;2023-05-10T02:18:13;14.70;99.90
27647;DHT22;42229;51.230;6.240;2023-05-10T02:20:40;14.80;99.90
27647;DHT22;42229;51.230;6.240;2023-05-10T02:23:06;14.70;99.90
27647;DHT22;42229;51.230;6.240;2023-05-10T02:25:33;14.70;99.90
27647;DHT22;42229;51.230;6.240;2023-05-10T02:28:01;14.70;99.90
27647;DHT22;42229;51.230;6.240;2023-05-10T02:30:28;14.70;99.90
27647;DHT22;42229;51.230;6.240;2023-05-10T02:32:55;14.70;99.90
27647;DHT22;42229;51.230;6.240;2023-05-10T02:35:23;14.70;99.90
27647;DHT22;42229;51.230;6.240;2023-05-10T02:37:51;14.70;99.90
27647;DHT22;42229;51.230;6.240;2023-05-10T02:40:18;14.70;99.90
27647;DHT22;42229;51.230;6.240;2023-05-10T02:42:45;14.70;99.90
27647;DHT22;42229;51.230;6.240;2023-05-10T02:45:14;14.70;99.90
27647;DHT22;42229;51.230;6.240;2023-05-10T02:47:43;14.70;99.90
27647;DHT22;42229;51.230;6.240;2023-05-10T02:50:09;14.70;99.90
27647;DHT22;42229;51.230;6.240;2023-05-10T02:52:51;14.70;99.90
27647;DHT22;42229;51.230;6.240;2023-05-10T02:55:19;14.70;99.90
27647;DHT22;42229;51.230;6.240;2023-05-10T02:57:57;14.70;99.90
27647;DHT22;42229;51.230;6.240;2023-05-10T03:00:25;14.70;99.90
27647;DHT22;42229;51.230;6.240;2023-05-10T03:02:51;14.80;99.90
27647;DHT22;42229;51.230;6.240;2023-05-10T03:05:18;14.80;99.90
27647;DHT22;42229;51.230;6.240;2023-05-10T03:07:45;14.80;99.90
27647;DHT22;42229;51.230;6.240;2023-05-10T03:10:12;14.80;99.90
27647;DHT22;42229;51.230;6.240;2023-05-10T03:13:03;14.90;99.90
27647;DHT22;42229;51.230;6.240;2023-05-10T03:18:09;14.90;99.90
27647;DHT22;42229;51.230;6.240;2023-05-10T03:20:41;14.90;99.90
27647;DHT22;42229;51.230;6.240;2023-05-10T03:25:48;15.00;99.90
27647;DHT22;42229;51.230;6.240;2023-05-10T03:28:16;15.00;99.90
27647;DHT22;42229;51.230;6.240;2023-05-10T03:30:43;15.00;99.90
27647;DHT22;42229;51.230;6.240;2023-05-10T03:33:11;15.00;99.90
27647;DHT22;42229;51.230;6.240;2023-05-10T03:35:41;15.00;99.90
27647;DHT22;42229;51.230;6.240;2023-05-10T03:38:07;15.00;99.90
27647;DHT22;42229;51.230;6.240;2023-05-10T03:40:34;15.00;99.90
27647;DHT22;42229;51.230;6.240;2023-05-10T03:43:00;15.00;99.90
27647;DHT22;42229;51.230;6.240;2023-05-10T03:45:26;15.00;99.90
27647;DHT22;42229;51.230;6.240;2023-05-10T03:47:53;15.10;99.90
27647;DHT22;42229;51.230;6.240;2023-05-10T03:50:20;15.10;99.90
27647;DHT22;42229;51.230;6.240;2023-05-10T03:52:47;15.10;99.90
27647;DHT22;42229;51.230;6.240;2023-05-10T03:55:13;15.10;99.90
27647;DHT22;42229;51.230;6.240;2023-05-10T03:57:40;15.10;99.90
27647;DHT22;42229;51.230;6.240;2023-05-10T04:00:07;15.10;99.90
27647;DHT22;42229;51.230;6.240;2023-05-10T04:02:42;15.10;99.90
27647;DHT22;42229;51.230;6.240;2023-05-10T04:05:13;15.10;99.90
27647;DHT22;42229;51.230;6.240;2023-05-10T04:07:39;15.10;99.90
27647;DHT22;42229;51.230;6.240;2023-05-10T04:10:05;15.10;99.90
27647;DHT22;42229;51.230;6.240;2023-05-10T04:12:32;15.10;99.90
27647;DHT22;42229;51.230;6.240;2023-05-10T04:14:59;15.10;99.90
27647;DHT22;42229;51.230;6.240;2023-05-10T04:17:25;15.10;99.90
27647;DHT22;42229;51.230;6.240;2023-05-10T04:19:51;15.10;99.90
27647;DHT22;42229;51.230;6.240;2023-05-10T04:22:20;15.10;99.90
27647;DHT22;42229;51.230;6.240;2023-05-10T04:24:46;15.10;99.90
27647;DHT22;42229;51.230;6.240;2023-05-10T04:27:12;15.10;99.90
27647;DHT22;42229;51.230;6.240;2023-05-10T04:29:39;15.10;99.90
27647;DHT22;42229;51.230;6.240;2023-05-10T04:32:05;15.10;99.90
27647;DHT22;42229;51.230;6.240;2023-05-10T04:34:31;15.10;99.90
27647;DHT22;42229;51.230;6.240;2023-05-10T04:36:59;15.10;99.90
27647;DHT22;42229;51.230;6.240;2023-05-10T04:39:26;15.10;99.90
27647;DHT22;42229;51.230;6.240;2023-05-10T04:41:52;15.10;99.90
27647;DHT22;42229;51.230;6.240;2023-05-10T04:44:18;15.10;99.90
27647;DHT22;42229;51.230;6.240;2023-05-10T04:46:45;15.00;99.90
27647;DHT22;42229;51.230;6.240;2023-05-10T04:49:11;15.00;99.90
27647;DHT22;42229;51.230;6.240;2023-05-10T04:51:37;15.00;99.90
27647;DHT22;42229;51.230;6.240;2023-05-10T04:54:04;15.00;99.90
27647;DHT22;42229;51.230;6.240;2023-05-10T04:56:30;15.00;99.90
27647;DHT22;42229;51.230;6.240;2023-05-10T04:58:56;15.00;99.90
27647;DHT22;42229;51.230;6.240;2023-05-10T05:01:22;14.90;99.90
27647;DHT22;42229;51.230;6.240;2023-05-10T05:03:49;15.00;99.90
27647;DHT22;42229;51.230;6.240;2023-05-10T05:06:15;15.00;99.90
27647;DHT22;42229;51.230;6.240;2023-05-10T05:08:41;15.00;99.90
27647;DHT22;42229;51.230;6.240;2023-05-10T05:11:07;15.00;99.90
27647;DHT22;42229;51.230;6.240;2023-05-10T05:13:33;15.00;99.90
27647;DHT22;42229;51.230;6.240;2023-05-10T05:16:00;15.00;99.90
27647;DHT22;42229;51.230;6.240;2023-05-10T05:18:28;15.00;99.90
27647;DHT22;42229;51.230;6.240;2023-05-10T05:20:54;14.90;99.90
27647;DHT22;42229;51.230;6.240;2023-05-10T05:23:21;14.90;99.90
27647;DHT22;42229;51.230;6.240;2023-05-10T05:25:53;15.00;99.90
27647;DHT22;42229;51.230;6.240;2023-05-10T05:28:20;14.90;99.90
27647;DHT22;42229;51.230;6.240;2023-05-10T05:30:46;14.90;99.90
27647;DHT22;42229;51.230;6.240;2023-05-10T05:33:15;14.90;99.90
27647;DHT22;42229;51.230;6.240;2023-05-10T05:35:42;14.90;99.90
27647;DHT22;42229;51.230;6.240;2023-05-10T05:38:13;14.90;99.90
27647;DHT22;42229;51.230;6.240;2023-05-10T05:40:40;14.90;99.90
27647;DHT22;42229;51.230;6.240;2023-05-10T05:43:06;14.90;99.90
27647;DHT22;42229;51.230;6.240;2023-05-10T05:45:33;14.90;99.90
27647;DHT22;42229;51.230;6.240;2023-05-10T05:47:59;14.90;99.90
27647;DHT22;42229;51.230;6.240;2023-05-10T05:50:25;14.90;99.90
27647;DHT22;42229;51.230;6.240;2023-05-10T05:52:51;14.90;99.90
27647;DHT22;42229;51.230;6.240;2023-05-10T05:55:17;14.90;99.90
27647;DHT22;42229;51.230;6.240;2023-05-10T05:57:44;14.90;99.90
27647;DHT22;42229;51.230;6.240;2023-05-10T06:00:10;14.90;99.90
27647;DHT22;42229;51.230;6.240;2023-05-10T06:02:39;14.90;99.90
27647;DHT22;42229;51.230;6.240;2023-05-10T06:05:06;14.90;99.90
27647;DHT22;42229;51.230;6.240;2023-05-10T06:07:32;14.90;99.90
27647;DHT22;42229;51.230;6.240;2023-05-10T06:09:58;14.90;99.90
27647;DHT22;42229;51.230;6.240;2023-05-10T06:12:25;14.90;99.90
27647;DHT22;42229;51.230;6.240;2023-05-10T06:14:51;14.90;99.90
27647;DHT22;42229;51.230;6.240;2023-05-10T06:17:17;14.90;99.90
27647;DHT22;42229;51.230;6.240;2023-05-10T06:19:43;14.90;99.90
27647;DHT22;42229;51.230;6.240;2023-05-10T06:22:10;14.90;99.90
27647;DHT22;42229;51.230;6.240;2023-05-10T06:24:36;14.90;99.90
27647;DHT22;42229;51.230;6.240;2023-05-10T06:27:02;14.80;99.90
27647;DHT22;42229;51.230;6.240;2023-05-10T06:29:29;14.80;99.90
27647;DHT22;42229;51.230;6.240;2023-05-10T06:31:56;14.80;99.90
27647;DHT22;42229;51.230;6.240;2023-05-10T06:34:22;14.80;99.90
27647;DHT22;42229;51.230;6.240;2023-05-10T06:36:48;14.80;99.90
27647;DHT22;42229;51.230;6.240;2023-05-10T06:39:15;14.80;99.90
27647;DHT22;42229;51.230;6.240;2023-05-10T06:41:41;14.80;99.90
27647;DHT22;42229;51.230;6.240;2023-05-10T06:44:08;14.80;99.90
27647;DHT22;42229;51.230;6.240;2023-05-10T06:46:34;14.90;99.90
27647;DHT22;42229;51.230;6.240;2023-05-10T06:49:00;14.80;99.90
27647;DHT22;42229;51.230;6.240;2023-05-10T06:51:27;14.90;99.90
27647;DHT22;42229;51.230;6.240;2023-05-10T06:53:53;14.90;99.90
27647;DHT22;42229;51.230;6.240;2023-05-10T06:56:19;14.90;99.90
27647;DHT22;42229;51.230;6.240;2023-05-10T06:58:47;14.90;99.90
27647;DHT22;42229;51.230;6.240;2023-05-10T07:01:14;14.90;99.90
27647;DHT22;42229;51.230;6.240;2023-05-10T07:03:40;14.90;99.90
27647;DHT22;42229;51.230;6.240;2023-05-10T07:06:07;14.90;99.90
27647;DHT22;42229;51.230;6.240;2023-05-10T07:08:33;15.00;99.90
27647;DHT22;42229;51.230;6.240;2023-05-10T07:11:03;14.90;99.90
27647;DHT22;42229;51.230;6.240;2023-05-10T07:13:33;15.00;99.90
27647;DHT22;42229;51.230;6.240;2023-05-10T07:16:00;15.00;99.90
27647;DHT22;42229;51.230;6.240;2023-05-10T07:18:27;15.00;99.90
27647;DHT22;42229;51.230;6.240;2023-05-10T07:20:54;15.00;99.90
27647;DHT22;42229;51.230;6.240;2023-05-10T07:23:20;15.00;99.90
27647;DHT22;42229;51.230;6.240;2023-05-10T07:25:47;15.00;99.90
27647;DHT22;42229;51.230;6.240;2023-05-10T07:28:14;15.00;99.90
27647;DHT22;42229;51.230;6.240;2023-05-10T07:30:40;15.00;99.90
27647;DHT22;42229;51.230;6.240;2023-05-10T07:33:07;15.00;99.90
27647;DHT22;42229;51.230;6.240;2023-05-10T07:35:34;15.00;99.90
27647;DHT22;42229;51.230;6.240;2023-05-10T07:38:01;15.10;99.90
27647;DHT22;42229;51.230;6.240;2023-05-10T07:40:28;15.10;99.90
27647;DHT22;42229;51.230;6.240;2023-05-10T07:42:54;15.10;99.90
27647;DHT22;42229;51.230;6.240;2023-05-10T07:45:21;15.20;99.90
27647;DHT22;42229;51.230;6.240;2023-05-10T07:47:47;15.20;99.90
27647;DHT22;42229;51.230;6.240;2023-05-10T07:50:14;15.30;99.90
27647;DHT22;42229;51.230;6.240;2023-05-10T07:52:40;15.40;99.90
27647;DHT22;42229;51.230;6.240;2023-05-10T07:55:07;15.40;99.90
27647;DHT22;42229;51.230;6.240;2023-05-10T07:57:34;15.50;99.90
27647;DHT22;42229;51.230;6.240;2023-05-10T08:00:00;15.60;99.90
27647;DHT22;42229;51.230;6.240;2023-05-10T08:02:26;15.70;99.90
27647;DHT22;42229;51.230;6.240;2023-05-10T08:04:53;15.80;99.90
27647;DHT22;42229;51.230;6.240;2023-05-10T08:07:19;15.80;99.90
27647;DHT22;42229;51.230;6.240;2023-05-10T08:09:45;15.90;99.90
27647;DHT22;42229;51.230;6.240;2023-05-10T08:12:11;15.90;99.90
27647;DHT22;42229;51.230;6.240;2023-05-10T08:14:38;16.00;99.90
27647;DHT22;42229;51.230;6.240;2023-05-10T08:17:04;15.90;99.90
27647;DHT22;42229;51.230;6.240;2023-05-10T08:19:30;15.90;99.90
27647;DHT22;42229;51.230;6.240;2023-05-10T08:21:56;15.90;99.90
27647;DHT22;42229;51.230;6.240;2023-05-10T08:24:23;15.90;99.90
27647;DHT22;42229;51.230;6.240;2023-05-10T08:26:49;15.90;99.90
27647;DHT22;42229;51.230;6.240;2023-05-10T08:29:15;15.90;99.90
27647;DHT22;42229;51.230;6.240;2023-05-10T08:31:41;15.90;99.90
27647;DHT22;42229;51.230;6.240;2023-05-10T08:34:07;15.80;99.90
27647;DHT22;42229;51.230;6.240;2023-05-10T08:36:34;15.80;99.90
27647;DHT22;42229;51.230;6.240;2023-05-10T08:39:00;15.90;99.90
27647;DHT22;42229;51.230;6.240;2023-05-10T08:41:26;15.90;99.90
27647;DHT22;42229;51.230;6.240;2023-05-10T08:43:53;15.90;99.90
27647;DHT22;42229;51.230;6.240;2023-05-10T08:46:21;15.90;99.90
27647;DHT22;42229;51.230;6.240;2023-05-10T08:48:48;16.00;99.90
27647;DHT22;42229;51.230;6.240;2023-05-10T08:51:17;16.00;99.90
27647;DHT22;42229;51.230;6.240;2023-05-10T08:53:44;16.00;99.90
27647;DHT22;42229;51.230;6.240;2023-05-10T08:56:11;16.00;99.90
27647;DHT22;42229;51.230;6.240;2023-05-10T08:58:38;16.00;99.90
27647;DHT22;42229;51.230;6.240;2023-05-10T09:01:07;16.00;99.90
27647;DHT22;42229;51.230;6.240;2023-05-10T09:03:34;16.10;99.90
27647;DHT22;42229;51.230;6.240;2023-05-10T09:06:01;16.00;99.90
27647;DHT22;42229;51.230;6.240;2023-05-10T09:08:27;16.00;99.90
27647;DHT22;42229;51.230;6.240;2023-05-10T09:10:54;16.00;99.90
27647;DHT22;42229;51.230;6.240;2023-05-10T09:13:21;16.00;99.90
27647;DHT22;42229;51.230;6.240;2023-05-10T09:15:49;15.90;99.90
27647;DHT22;42229;51.230;6.240;2023-05-10T09:18:15;16.00;99.90
27647;DHT22;42229;51.230;6.240;2023-05-10T09:20:41;16.00;99.90
27647;DHT22;42229;51.230;6.240;2023-05-10T09:23:08;16.00;99.90
27647;DHT22;42229;51.230;6.240;2023-05-10T09:25:34;16.10;99.90
27647;DHT22;42229;51.230;6.240;2023-05-10T09:28:00;16.10;99.90
27647;DHT22;42229;51.230;6.240;2023-05-10T09:30:28;16.20;99.90
27647;DHT22;42229;51.230;6.240;2023-05-10T09:32:55;16.20;99.90
27647;DHT22;42229;51.230;6.240;2023-05-10T09:35:23;16.30;99.90
27647;DHT22;42229;51.230;6.240;2023-05-10T09:37:52;16.40;99.90
27647;DHT22;42229;51.230;6.240;2023-05-10T09:40:21;16.50;99.90
27647;DHT22;42229;51.230;6.240;2023-05-10T09:42:55;16.50;99.90
27647;DHT22;42229;51.230;6.240;2023-05-10T09:45:26;16.60;99.90
27647;DHT22;42229;51.230;6.240;2023-05-10T09:47:53;16.60;99.90
27647;DHT22;42229;51.230;6.240;2023-05-10T09:50:20;16.70;99.90
27647;DHT22;42229;51.230;6.240;2023-05-10T09:52:56;16.70;99.90
27647;DHT22;42229;51.230;6.240;2023-05-10T09:55:25;16.70;99.90
27647;DHT22;42229;51.230;6.240;2023-05-10T09:57:59;16.70;99.90
27647;DHT22;42229;51.230;6.240;2023-05-10T10:00:25;16.70;99.90
27647;DHT22;42229;51.230;6.240;2023-05-10T10:02:56;16.80;99.90
27647;DHT22;42229;51.230;6.240;2023-05-10T10:07:57;16.90;99.90
27647;DHT22;42229;51.230;6.240;2023-05-10T10:10:24;16.90;99.90
27647;DHT22;42229;51.230;6.240;2023-05-10T10:12:51;16.90;99.90
27647;DHT22;42229;51.230;6.240;2023-05-10T10:15:18;16.90;99.90
27647;DHT22;42229;51.230;6.240;2023-05-10T10:17:44;17.00;99.90
27647;DHT22;42229;51.230;6.240;2023-05-10T10:20:11;17.00;99.90
27647;DHT22;42229;51.230;6.240;2023-05-10T10:22:37;17.10;99.90
27647;DHT22;42229;51.230;6.240;2023-05-10T10:25:07;17.10;99.90
27647;DHT22;42229;51.230;6.240;2023-05-10T10:27:43;17.30;99.90
27647;DHT22;42229;51.230;6.240;2023-05-10T10:30:16;17.40;99.90
27647;DHT22;42229;51.230;6.240;2023-05-10T10:35:44;17.50;99.90
27647;DHT22;42229;51.230;6.240;2023-05-10T10:38:12;17.50;99.90
27647;DHT22;42229;51.230;6.240;2023-05-10T10:40:38;17.50;99.90
27647;DHT22;42229;51.230;6.240;2023-05-10T10:43:24;17.50;99.90
27647;DHT22;42229;51.230;6.240;2023-05-10T10:48:38;17.40;99.90
27647;DHT22;42229;51.230;6.240;2023-05-10T10:51:04;17.30;99.90
27647;DHT22;42229;51.230;6.240;2023-05-10T10:53:31;17.30;99.90
27647;DHT22;42229;51.230;6.240;2023-05-10T10:56:08;17.20;99.90
27647;DHT22;42229;51.230;6.240;2023-05-10T10:58:35;17.20;99.90
27647;DHT22;42229;51.230;6.240;2023-05-10T11:06:33;17.20;99.90
27647;DHT22;42229;51.230;6.240;2023-05-10T11:09:06;17.20;99.90
27647;DHT22;42229;51.230;6.240;2023-05-10T11:11:34;17.20;99.90
27647;DHT22;42229;51.230;6.240;2023-05-10T11:14:07;17.30;99.90
27647;DHT22;42229;51.230;6.240;2023-05-10T11:16:43;17.20;99.90
27647;DHT22;42229;51.230;6.240;2023-05-10T11:19:10;17.30;99.90
27647;DHT22;42229;51.230;6.240;2023-05-10T11:21:48;17.30;99.90
27647;DHT22;42229;51.230;6.240;2023-05-10T11:24:17;17.40;99.90
27647;DHT22;42229;51.230;6.240;2023-05-10T11:26:44;17.40;99.90
27647;DHT22;42229;51.230;6.240;2023-05-10T11:29:12;17.40;99.90
27647;DHT22;42229;51.230;6.240;2023-05-10T11:31:42;17.40;99.90
27647;DHT22;42229;51.230;6.240;2023-05-10T11:34:31;17.60;99.90
27647;DHT22;42229;51.230;6.240;2023-05-10T11:37:00;17.60;99.90
27647;DHT22;42229;51.230;6.240;2023-05-10T11:39:27;17.60;99.90
27647;DHT22;42229;51.230;6.240;2023-05-10T11:41:55;17.70;99.90
27647;DHT22;42229;51.230;6.240;2023-05-10T11:44:21;17.80;99.90
27647;DHT22;42229;51.230;6.240;2023-05-10T11:46:47;17.80;99.90
27647;DHT22;42229;51.230;6.240;2023-05-10T11:49:14;17.90;99.90
27647;DHT22;42229;51.230;6.240;2023-05-10T11:51:41;17.90;99.90
27647;DHT22;42229;51.230;6.240;2023-05-10T11:54:10;17.90;99.90
27647;DHT22;42229;51.230;6.240;2023-05-10T11:56:37;17.90;99.90
27647;DHT22;42229;51.230;6.240;2023-05-10T11:59:04;17.90;99.90
27647;DHT22;42229;51.230;6.240;2023-05-10T12:01:31;18.00;99.90
27647;DHT22;42229;51.230;6.240;2023-05-10T12:03:58;18.00;99.90
27647;DHT22;42229;51.230;6.240;2023-05-10T12:06:29;18.00;99.90
27647;DHT22;42229;51.230;6.240;2023-05-10T12:08:57;18.10;99.90
27647;DHT22;42229;51.230;6.240;2023-05-10T12:11:24;18.20;99.90
27647;DHT22;42229;51.230;6.240;2023-05-10T12:13:51;18.40;99.90
27647;DHT22;42229;51.230;6.240;2023-05-10T12:16:22;18.50;99.90
27647;DHT22;42229;51.230;6.240;2023-05-10T12:18:50;18.70;99.90
27647;DHT22;42229;51.230;6.240;2023-05-10T12:21:18;18.90;99.90
27647;DHT22;42229;51.230;6.240;2023-05-10T12:23:45;19.10;99.90
27647;DHT22;42229;51.230;6.240;2023-05-10T12:26:12;19.30;99.90
27647;DHT22;42229;51.230;6.240;2023-05-10T12:28:39;19.50;99.90
27647;DHT22;42229;51.230;6.240;2023-05-10T12:31:05;19.70;99.90
27647;DHT22;42229;51.230;6.240;2023-05-10T12:33:36;20.00;99.90
27647;DHT22;42229;51.230;6.240;2023-05-10T12:36:13;20.20;99.90
27647;DHT22;42229;51.230;6.240;2023-05-10T12:38:41;20.60;99.90
27647;DHT22;42229;51.230;6.240;2023-05-10T12:41:09;21.00;99.90
27647;DHT22;42229;51.230;6.240;2023-05-10T12:43:37;21.30;99.90
27647;DHT22;42229;51.230;6.240;2023-05-10T12:46:09;21.70;99.90
27647;DHT22;42229;51.230;6.240;2023-05-10T12:48:43;21.90;99.90
27647;DHT22;42229;51.230;6.240;2023-05-10T12:51:12;22.10;99.90
27647;DHT22;42229;51.230;6.240;2023-05-10T12:53:46;22.20;99.90
27647;DHT22;42229;51.230;6.240;2023-05-10T12:56:14;22.20;99.90
27647;DHT22;42229;51.230;6.240;2023-05-10T12:58:41;22.20;99.90
27647;DHT22;42229;51.230;6.240;2023-05-10T13:01:07;22.10;99.90
27647;DHT22;42229;51.230;6.240;2023-05-10T13:03:37;22.00;99.90
27647;DHT22;42229;51.230;6.240;2023-05-10T13:06:04;21.90;99.90
27647;DHT22;42229;51.230;6.240;2023-05-10T13:08:32;21.70;99.90
27647;DHT22;42229;51.230;6.240;2023-05-10T13:11:00;21.70;99.90
27647;DHT22;42229;51.230;6.240;2023-05-10T13:13:28;21.60;99.90
27647;DHT22;42229;51.230;6.240;2023-05-10T13:15:58;21.50;99.90
27647;DHT22;42229;51.230;6.240;2023-05-10T13:18:25;21.50;99.90
27647;DHT22;42229;51.230;6.240;2023-05-10T13:20:55;21.50;99.90
27647;DHT22;42229;51.230;6.240;2023-05-10T13:23:22;21.50;99.90
27647;DHT22;42229;51.230;6.240;2023-05-10T13:25:54;21.40;99.90
27647;DHT22;42229;51.230;6.240;2023-05-10T13:28:21;21.50;99.90
27647;DHT22;42229;51.230;6.240;2023-05-10T13:30:48;21.50;99.90
27647;DHT22;42229;51.230;6.240;2023-05-10T13:33:15;21.50;99.90
27647;DHT22;42229;51.230;6.240;2023-05-10T13:35:42;21.60;99.90
27647;DHT22;42229;51.230;6.240;2023-05-10T13:38:10;21.70;99.90
27647;DHT22;42229;51.230;6.240;2023-05-10T13:40:40;21.70;99.90
27647;DHT22;42229;51.230;6.240;2023-05-10T13:43:10;21.70;99.90
27647;DHT22;42229;51.230;6.240;2023-05-10T13:45:37;21.70;99.90
27647;DHT22;42229;51.230;6.240;2023-05-10T13:48:10;21.60;99.90
27647;DHT22;42229;51.230;6.240;2023-05-10T13:50:37;21.60;99.90
27647;DHT22;42229;51.230;6.240;2023-05-10T13:53:05;21.50;99.90
27647;DHT22;42229;51.230;6.240;2023-05-10T13:55:32;21.40;99.90
27647;DHT22;42229;51.230;6.240;2023-05-10T13:58:00;21.30;99.90
27647;DHT22;42229;51.230;6.240;2023-05-10T14:00:26;21.20;99.90
27647;DHT22;42229;51.230;6.240;2023-05-10T14:02:55;21.10;99.90
27647;DHT22;42229;51.230;6.240;2023-05-10T14:05:23;21.10;99.90
27647;DHT22;42229;51.230;6.240;2023-05-10T14:07:50;21.10;99.90
27647;DHT22;42229;51.230;6.240;2023-05-10T14:10:16;21.10;99.90
27647;DHT22;42229;51.230;6.240;2023-05-10T14:12:51;21.20;99.90
27647;DHT22;42229;51.230;6.240;2023-05-10T14:15:20;21.20;99.90
27647;DHT22;42229;51.230;6.240;2023-05-10T14:17:48;21.40;99.90
27647;DHT22;42229;51.230;6.240;2023-05-10T14:20:14;21.40;99.90
27647;DHT22;42229;51.230;6.240;2023-05-10T14:22:41;21.50;99.90
27647;DHT22;42229;51.230;6.240;2023-05-10T14:25:08;21.60;99.90
27647;DHT22;42229;51.230;6.240;2023-05-10T14:27:35;21.70;99.90
27647;DHT22;42229;51.230;6.240;2023-05-10T14:30:02;21.70;99.90
27647;DHT22;42229;51.230;6.240;2023-05-10T14:32:28;21.90;99.90
27647;DHT22;42229;51.230;6.240;2023-05-10T14:34:55;21.90;99.90
27647;DHT22;42229;51.230;6.240;2023-05-10T14:37:22;21.90;99.90
27647;DHT22;42229;51.230;6.240;2023-05-10T14:39:49;21.90;99.90
27647;DHT22;42229;51.230;6.240;2023-05-10T14:42:16;21.90;99.90
27647;DHT22;42229;51.230;6.240;2023-05-10T14:44:45;21.80;99.90
27647;DHT22;42229;51.230;6.240;2023-05-10T14:47:18;21.80;99.90
27647;DHT22;42229;51.230;6.240;2023-05-10T14:49:45;21.70;99.90
27647;DHT22;42229;51.230;6.240;2023-05-10T14:52:12;21.60;99.90
27647;DHT22;42229;51.230;6.240;2023-05-10T14:54:41;21.60;99.90
27647;DHT22;42229;51.230;6.240;2023-05-10T14:57:08;21.50;99.90
27647;DHT22;42229;51.230;6.240;2023-05-10T14:59:42;21.50;99.90
27647;DHT22;42229;51.230;6.240;2023-05-10T15:02:11;21.70;99.90
27647;DHT22;42229;51.230;6.240;2023-05-10T15:04:42;21.80;99.90
27647;DHT22;42229;51.230;6.240;2023-05-10T15:07:16;21.90;99.90
27647;DHT22;42229;51.230;6.240;2023-05-10T15:09:47;22.00;99.90
27647;DHT22;42229;51.230;6.240;2023-05-10T15:12:19;22.00;99.90
27647;DHT22;42229;51.230;6.240;2023-05-10T15:14:49;22.00;99.90
27647;DHT22;42229;51.230;6.240;2023-05-10T15:17:16;22.00;99.90
27647;DHT22;42229;51.230;6.240;2023-05-10T15:19:52;21.90;99.90
27647;DHT22;42229;51.230;6.240;2023-05-10T15:22:26;21.80;99.90
27647;DHT22;42229;51.230;6.240;2023-05-10T15:24:54;21.70;99.90
27647;DHT22;42229;51.230;6.240;2023-05-10T15:27:21;21.60;99.90
27647;DHT22;42229;51.230;6.240;2023-05-10T15:29:49;21.40;99.90
27647;DHT22;42229;51.230;6.240;2023-05-10T15:32:19;21.30;99.90
27647;DHT22;42229;51.230;6.240;2023-05-10T15:34:47;21.10;99.90
27647;DHT22;42229;51.230;6.240;2023-05-10T15:37:20;21.00;99.90
27647;DHT22;42229;51.230;6.240;2023-05-10T15:39:47;20.80;99.90
27647;DHT22;42229;51.230;6.240;2023-05-10T15:42:13;20.70;99.90
27647;DHT22;42229;51.230;6.240;2023-05-10T15:44:39;20.60;99.90
27647;DHT22;42229;51.230;6.240;2023-05-10T15:47:05;20.40;99.90
27647;DHT22;42229;51.230;6.240;2023-05-10T15:49:31;20.20;99.90
27647;DHT22;42229;51.230;6.240;2023-05-10T15:51:58;20.10;99.90
27647;DHT22;42229;51.230;6.240;2023-05-10T15:54:24;19.90;99.90
27647;DHT22;42229;51.230;6.240;2023-05-10T15:56:51;19.70;99.90
27647;DHT22;42229;51.230;6.240;2023-05-10T15:59:19;19.50;99.90
27647;DHT22;42229;51.230;6.240;2023-05-10T16:01:48;19.30;99.90